ANA125 KLAX-RJTT
Flight info
| Callsign | ANA125 |
|---|---|
| Flight time | N/A |
| Altitude | 32000 |
| Route | SUMMR2 MCKEY DCT LIBBO DCT BRINY DCT BOARS DCT AMAKR DCT LINUZ DCT NATTE DCT ZANNG/N0480F340 DCT 50N140W 54N150W 56N160W DCT CAMBO/N0483F360 DCT EXAMY DCT AAMYY DCT ASPIN DCT AKISU DCT AGEDI/N0476F380 ADGOR R591 ADNAP Y807 POLIX |
| Aircraft | B77W/H-SDE1E2E3FGHIJ2J3J4J5M1RWXY/LB1D1 |
Departure
| Time | N/A |
|---|---|
| Airport | Los Angeles International Airport (KLAX) |
Arrival
| Time | 2026-05-01 11:00 |
|---|---|
| Airport | Tokyo Haneda International Airport (RJTT) |
| Time | Latitude | Longitude | Altitude | Speed | Heading |
|---|---|---|---|---|---|
| 2026-05-01 10:50 | 35.90762 | 139.96275 | 6102 ft | 254 kts | 167° |
| 2026-05-01 10:50 | 35.89070 | 139.97017 | 5935 ft | 255 kts | 167° |
| 2026-05-01 10:51 | 35.87402 | 139.97752 | 5774 ft | 256 kts | 167° |
| 2026-05-01 10:51 | 35.85738 | 139.98485 | 5607 ft | 252 kts | 169° |
| 2026-05-01 10:51 | 35.84094 | 139.98675 | 5540 ft | 225 kts | 197° |
| 2026-05-01 10:51 | 35.82690 | 139.98016 | 5506 ft | 213 kts | 207° |
| 2026-05-01 10:52 | 35.81262 | 139.97539 | 5493 ft | 218 kts | 188° |
| 2026-05-01 10:52 | 35.79717 | 139.97659 | 5479 ft | 221 kts | 181° |
| 2026-05-01 10:52 | 35.78182 | 139.97858 | 5495 ft | 221 kts | 181° |
| 2026-05-01 10:52 | 35.76659 | 139.98055 | 5479 ft | 222 kts | 181° |
| 2026-05-01 10:53 | 35.75121 | 139.98254 | 5301 ft | 223 kts | 181° |
| 2026-05-01 10:53 | 35.73568 | 139.98456 | 5011 ft | 224 kts | 181° |
| 2026-05-01 10:53 | 35.72019 | 139.98659 | 4718 ft | 224 kts | 181° |
| 2026-05-01 10:53 | 35.70474 | 139.98860 | 4395 ft | 224 kts | 181° |
| 2026-05-01 10:54 | 35.68951 | 139.98955 | 4102 ft | 208 kts | 197° |
| 2026-05-01 10:54 | 35.67701 | 139.98329 | 4029 ft | 185 kts | 217° |
| 2026-05-01 10:54 | 35.66718 | 139.97397 | 3959 ft | 172 kts | 224° |
| 2026-05-01 10:54 | 35.65852 | 139.96400 | 3710 ft | 172 kts | 227° |
| 2026-05-01 10:55 | 35.65013 | 139.95348 | 3360 ft | 177 kts | 226° |
| 2026-05-01 10:55 | 35.64088 | 139.94270 | 2868 ft | 189 kts | 226° |
| 2026-05-01 10:55 | 35.63135 | 139.93123 | 2490 ft | 189 kts | 227° |
| 2026-05-01 10:55 | 35.62222 | 139.92012 | 2247 ft | 182 kts | 227° |
| 2026-05-01 10:56 | 35.61337 | 139.90941 | 2012 ft | 175 kts | 228° |
| 2026-05-01 10:56 | 35.60486 | 139.89909 | 1787 ft | 168 kts | 228° |
| 2026-05-01 10:56 | 35.59695 | 139.88956 | 1574 ft | 149 kts | 228° |
| 2026-05-01 10:56 | 35.58995 | 139.88107 | 1396 ft | 132 kts | 228° |
| 2026-05-01 10:57 | 35.58384 | 139.87367 | 1240 ft | 120 kts | 227° |
| 2026-05-01 10:57 | 35.57788 | 139.86647 | 1090 ft | 120 kts | 227° |
| 2026-05-01 10:57 | 35.57193 | 139.85930 | 926 ft | 120 kts | 226° |
| 2026-05-01 10:57 | 35.56999 | 139.85693 | 858 ft | 118 kts | 226° |
| 2026-05-01 10:58 | 35.56946 | 139.85629 | 849 ft | 117 kts | 226° |
| 2026-05-01 10:58 | 35.56397 | 139.84869 | 688 ft | 118 kts | 229° |
| 2026-05-01 10:59 | 35.55799 | 139.84164 | 503 ft | 118 kts | 222° |
| 2026-05-01 10:59 | 35.55184 | 139.83479 | 373 ft | 118 kts | 223° |
| 2026-05-01 10:59 | 35.54597 | 139.82811 | 217 ft | 111 kts | 221° |
| 2026-05-01 10:59 | 35.54007 | 139.82149 | 61 ft | 121 kts | 221° |
| 2026-05-01 11:00 | 35.53433 | 139.81508 | 35 ft | 96 kts | 222° |
| 2026-05-01 11:00 | 35.53104 | 139.81134 | 34 ft | 30 kts | 225° |
| 2026-05-01 11:00 | 35.52992 | 139.80981 | 34 ft | 21 kts | 231° |